Time;durP1;ratioP1;P1;durP2;ratioP2;P2;SDS_P1;SDS_P2;PMS_P1;PMS_P2;Temp;Humidity;BMP_temperature;BMP_pressure;BME280_temperature;BME280_humidity;BME280_pressure;Samples;Min_cycle;Max_cycle;Signal;HPM_P1;HPM_P2
2022/05/31 00:02:16;;;;;;;5.63;2.92;;;8.50;99.90;;;;;;5076617;28;20057;-88
2022/05/31 00:04:42;;;;;;;4.20;2.33;;;8.50;99.90;;;;;;5077030;28;20222;-87
2022/05/31 00:07:08;;;;;;;3.45;1.95;;;8.50;99.90;;;;;;5094061;28;20554;-88
2022/05/31 00:09:34;;;;;;;5.53;2.55;;;8.50;99.90;;;;;;5095101;28;20028;-89
2022/05/31 00:11:59;;;;;;;5.10;2.15;;;8.40;99.90;;;;;;5076969;28;20024;-88
2022/05/31 00:14:25;;;;;;;3.25;2.75;;;8.50;99.90;;;;;;5076906;28;20496;-90
2022/05/31 00:16:51;;;;;;;5.78;2.35;;;8.40;99.90;;;;;;5076562;28;20039;-91
2022/05/31 00:19:18;;;;;;;5.18;2.63;;;8.40;99.90;;;;;;5077221;28;20475;-90
2022/05/31 00:21:50;;;;;;;5.28;2.85;;;8.40;99.90;;;;;;5076697;28;20036;-91
2022/05/31 00:24:19;;;;;;;5.38;2.95;;;8.30;99.90;;;;;;5077349;28;20028;-90
2022/05/31 00:26:45;;;;;;;3.95;2.40;;;8.40;99.90;;;;;;5093605;28;20077;-92
2022/05/31 00:29:11;;;;;;;3.70;2.63;;;8.50;99.90;;;;;;5093558;28;20028;-91
2022/05/31 00:31:43;;;;;;;4.18;2.53;;;8.50;99.90;;;;;;5093644;28;20068;-90
2022/05/31 00:34:10;;;;;;;3.28;2.45;;;8.60;99.90;;;;;;5093657;28;20475;-91
2022/05/31 00:36:38;;;;;;;9.93;2.60;;;8.60;99.90;;;;;;5077161;28;20016;-91
2022/05/31 00:39:05;;;;;;;2.83;2.08;;;8.60;99.90;;;;;;5077172;28;20100;-90
2022/05/31 00:41:33;;;;;;;4.10;2.58;;;8.60;99.90;;;;;;5076929;28;20035;-91
2022/05/31 00:44:19;;;;;;;6.03;2.60;;;8.60;99.90;;;;;;5093611;28;20036;-91
2022/05/31 00:47:00;;;;;;;6.88;2.47;;;8.50;99.90;;;;;;5076924;28;20387;-92
2022/05/31 00:49:33;;;;;;;3.25;2.40;;;8.40;99.90;;;;;;5077072;28;20131;-91
2022/05/31 00:52:14;;;;;;;4.68;2.58;;;8.40;99.90;;;;;;5093377;28;20035;-91
2022/05/31 00:54:50;;;;;;;3.37;2.37;;;8.30;99.90;;;;;;5078288;28;20107;-90
2022/05/31 00:57:16;;;;;;;3.22;2.05;;;8.30;99.90;;;;;;5076590;28;20123;-91
2022/05/31 00:59:53;;;;;;;3.30;2.47;;;8.30;99.90;;;;;;5095061;28;20074;-91
2022/05/31 01:02:19;;;;;;;3.03;1.90;;;8.20;99.90;;;;;;5080659;28;20036;-89
2022/05/31 01:04:50;;;;;;;5.03;2.67;;;8.20;99.90;;;;;;5097663;28;20032;-90
2022/05/31 01:07:18;;;;;;;3.08;2.10;;;8.20;99.90;;;;;;5080257;28;20059;-90
2022/05/31 01:09:44;;;;;;;3.95;2.13;;;8.20;99.90;;;;;;5097393;28;20039;-90
2022/05/31 01:12:28;;;;;;;3.53;2.58;;;8.30;99.90;;;;;;5098050;28;20097;-91
2022/05/31 01:15:15;;;;;;;5.15;2.92;;;8.30;99.90;;;;;;5098175;28;20039;-90
2022/05/31 01:18:02;;;;;;;3.40;2.30;;;8.30;99.90;;;;;;5086685;28;20032;-92
2022/05/31 01:20:28;;;;;;;8.35;2.70;;;8.30;99.90;;;;;;5098099;28;20040;-91
2022/05/31 01:23:08;;;;;;;4.75;2.33;;;8.20;99.90;;;;;;5081236;28;20031;-90
2022/05/31 01:25:59;;;;;;;2.50;2.10;;;8.20;99.90;;;;;;5097149;28;20050;-90
2022/05/31 01:28:43;;;;;;;3.05;2.30;;;8.10;99.90;;;;;;5080132;28;20483;-90
2022/05/31 01:31:28;;;;;;;3.70;2.60;;;8.00;99.90;;;;;;5096672;28;20024;-89
2022/05/31 01:34:11;;;;;;;5.00;2.15;;;8.00;99.90;;;;;;5079736;28;20039;-90
2022/05/31 01:36:57;;;;;;;4.90;2.53;;;8.00;99.90;;;;;;5096997;28;20071;-90
2022/05/31 01:39:32;;;;;;;5.25;2.88;;;8.00;99.90;;;;;;5080007;28;20035;-91
2022/05/31 01:42:23;;;;;;;4.10;2.63;;;7.90;99.90;;;;;;5096082;28;20040;-91
2022/05/31 01:44:54;;;;;;;2.80;2.40;;;7.90;99.90;;;;;;5078515;28;20040;-90
2022/05/31 01:47:20;;;;;;;3.30;2.17;;;7.90;99.90;;;;;;5079626;28;20042;-90
2022/05/31 01:49:50;;;;;;;7.30;2.72;;;7.90;99.90;;;;;;5079865;28;20343;-90
2022/05/31 01:52:17;;;;;;;7.40;2.60;;;7.90;99.90;;;;;;5080008;28;20032;-90
2022/05/31 01:54:43;;;;;;;6.22;2.50;;;7.80;99.90;;;;;;5096724;28;20095;-88
2022/05/31 01:57:13;;;;;;;10.35;3.65;;;7.80;99.90;;;;;;5096609;28;20032;-91
2022/05/31 01:59:46;;;;;;;3.75;2.55;;;7.80;99.90;;;;;;5096613;28;20066;-91
2022/05/31 02:02:15;;;;;;;3.42;2.50;;;7.90;99.90;;;;;;5079759;28;20034;-91
2022/05/31 02:04:45;;;;;;;3.83;2.70;;;7.80;99.90;;;;;;5079466;28;20093;-92
2022/05/31 02:07:16;;;;;;;2.97;2.20;;;7.80;99.90;;;;;;5095857;28;20066;-90
2022/05/31 02:09:47;;;;;;;4.90;2.10;;;7.70;99.90;;;;;;5096121;28;20032;-90
2022/05/31 02:12:22;;;;;;;8.82;2.75;;;7.80;99.90;;;;;;5095061;28;20051;-91
2022/05/31 02:15:07;;;;;;;5.13;2.50;;;7.70;99.90;;;;;;5096386;28;20097;-91
2022/05/31 02:17:33;;;;;;;5.22;2.35;;;7.70;99.90;;;;;;5079543;28;20020;-92
2022/05/31 02:20:17;;;;;;;5.63;3.33;;;7.80;99.90;;;;;;5096845;28;20490;-93
2022/05/31 02:22:43;;;;;;;4.18;2.58;;;7.70;99.90;;;;;;5079011;28;20032;-91
2022/05/31 02:25:10;;;;;;;2.50;2.13;;;7.80;99.90;;;;;;5095831;28;20063;-91
2022/05/31 02:27:36;;;;;;;3.95;2.10;;;7.80;99.90;;;;;;5078816;28;20024;-91
2022/05/31 02:30:02;;;;;;;7.15;2.42;;;7.80;99.90;;;;;;5078587;28;20123;-91
2022/05/31 02:32:27;;;;;;;3.83;2.30;;;7.70;99.90;;;;;;5095087;28;20039;-90
2022/05/31 02:34:54;;;;;;;3.38;2.40;;;7.70;99.90;;;;;;5095447;28;20028;-92
2022/05/31 02:37:21;;;;;;;4.22;2.85;;;7.60;99.90;;;;;;5078626;28;20020;-90
2022/05/31 02:39:47;;;;;;;11.38;3.42;;;7.60;99.90;;;;;;5078701;28;20020;-91
2022/05/31 02:42:14;;;;;;;3.22;2.50;;;7.60;99.90;;;;;;5095516;28;20578;-90
2022/05/31 02:44:41;;;;;;;3.42;2.75;;;7.60;99.90;;;;;;5078713;28;20028;-91
2022/05/31 02:47:07;;;;;;;4.55;2.65;;;7.60;99.90;;;;;;5095644;28;20035;-91
2022/05/31 02:49:34;;;;;;;5.05;2.70;;;7.60;99.90;;;;;;5078196;28;20039;-90
2022/05/31 02:52:00;;;;;;;3.00;2.63;;;7.50;99.90;;;;;;5094851;28;20032;-90
2022/05/31 02:54:27;;;;;;;4.53;2.53;;;7.50;99.90;;;;;;5078413;28;20047;-88
2022/05/31 02:57:11;;;;;;;3.92;2.53;;;7.50;99.90;;;;;;5096334;28;20039;-88
2022/05/31 03:00:04;;;;;;;3.17;2.45;;;7.40;99.90;;;;;;5079939;28;20029;-88
2022/05/31 03:02:48;;;;;;;5.72;3.13;;;7.30;99.90;;;;;;5096050;28;20085;-88
2022/05/31 03:05:33;;;;;;;6.18;3.08;;;7.20;99.90;;;;;;5096473;28;20035;-88
2022/05/31 03:07:58;;;;;;;9.23;2.72;;;7.20;99.90;;;;;;5095285;28;20372;-89
2022/05/31 03:10:33;;;;;;;4.45;3.22;;;7.20;99.90;;;;;;5078330;28;20032;-89
2022/05/31 03:12:59;;;;;;;5.22;2.75;;;7.20;99.90;;;;;;5078228;28;20051;-88
2022/05/31 03:15:26;;;;;;;9.68;3.30;;;7.20;99.90;;;;;;5077710;28;20028;-88
2022/05/31 03:18:08;;;;;;;3.10;2.22;;;7.20;99.90;;;;;;5078060;28;20024;-89
2022/05/31 03:20:43;;;;;;;4.63;2.88;;;7.20;99.90;;;;;;5077984;28;20040;-91
2022/05/31 03:23:18;;;;;;;4.60;2.85;;;7.40;99.90;;;;;;5094511;28;20056;-92
2022/05/31 03:25:45;;;;;;;3.67;2.38;;;7.40;99.90;;;;;;5077849;28;20039;-93
2022/05/31 03:28:12;;;;;;;6.15;2.30;;;7.50;99.90;;;;;;5094907;28;20487;-93
2022/05/31 03:30:38;;;;;;;4.93;2.50;;;7.70;99.90;;;;;;5077660;28;20032;-93
2022/05/31 03:33:07;;;;;;;4.18;2.50;;;7.70;99.90;;;;;;5094852;28;20032;-92
2022/05/31 03:35:33;;;;;;;6.72;2.55;;;7.80;99.90;;;;;;5077617;28;20061;-93
2022/05/31 03:38:04;;;;;;;3.42;2.70;;;7.90;99.90;;;;;;5078829;28;20032;-93
2022/05/31 03:43:22;;;;;;;2.65;2.20;;;8.00;99.90;;;;;;5094903;28;20058;-92
2022/05/31 03:46:12;;;;;;;5.32;2.45;;;8.00;99.90;;;;;;5095532;28;20031;-95
2022/05/31 03:48:50;;;;;;;7.05;2.70;;;8.20;99.90;;;;;;5079737;28;20107;-93
2022/05/31 03:51:15;;;;;;;5.32;2.58;;;8.20;99.90;;;;;;5094762;28;20032;-94
2022/05/31 03:53:42;;;;;;;5.45;2.65;;;8.30;99.90;;;;;;5094919;28;20028;-92
2022/05/31 03:56:09;;;;;;;4.40;2.40;;;8.40;99.90;;;;;;5094914;28;20051;-93
2022/05/31 03:58:38;;;;;;;5.68;2.40;;;8.50;99.90;;;;;;5077565;28;20036;-92
2022/05/31 04:01:18;;;;;;;3.28;2.60;;;8.60;99.90;;;;;;5081654;28;20077;-92
2022/05/31 04:03:45;;;;;;;5.05;2.45;;;8.70;99.90;;;;;;5078632;28;20039;-92
2022/05/31 04:06:10;;;;;;;5.30;2.80;;;8.70;99.90;;;;;;5077436;28;20024;-93
2022/05/31 04:08:36;;;;;;;4.80;2.53;;;8.80;99.90;;;;;;5077662;28;20028;-91
2022/05/31 04:11:02;;;;;;;3.65;2.70;;;9.00;99.90;;;;;;5077882;28;20414;-92
2022/05/31 04:13:29;;;;;;;5.10;2.97;;;9.00;99.90;;;;;;5078371;28;20544;-92
2022/05/31 04:16:16;;;;;;;8.60;2.80;;;9.30;99.90;;;;;;5095321;28;20050;-94
2022/05/31 04:18:50;;;;;;;6.15;2.70;;;9.50;99.90;;;;;;5078868;28;20115;-93
2022/05/31 04:21:17;;;;;;;5.38;2.83;;;9.70;99.90;;;;;;5077825;28;20086;-93
2022/05/31 04:23:59;;;;;;;6.30;2.35;;;9.90;99.90;;;;;;5094599;28;20028;-94
2022/05/31 04:26:48;;;;;;;4.28;3.15;;;10.10;99.90;;;;;;5094991;28;20036;-94
2022/05/31 04:29:34;;;;;;;3.67;2.80;;;10.10;99.90;;;;;;5094274;28;20046;-93
2022/05/31 04:32:18;;;;;;;3.97;2.38;;;10.20;99.90;;;;;;5094524;28;20502;-94
2022/05/31 04:34:44;;;;;;;4.20;3.08;;;10.30;99.90;;;;;;5093972;28;20028;-93
2022/05/31 04:37:11;;;;;;;2.90;2.38;;;10.50;99.90;;;;;;5078042;28;20050;-94
2022/05/31 04:39:54;;;;;;;4.40;2.85;;;10.70;99.90;;;;;;5095862;28;20491;-93
2022/05/31 04:42:33;;;;;;;6.30;2.47;;;10.90;99.90;;;;;;5094934;28;20035;-93
2022/05/31 04:45:00;;;;;;;4.68;2.85;;;10.90;99.90;;;;;;5077467;28;20024;-93
2022/05/31 04:47:26;;;;;;;8.20;2.75;;;11.00;99.90;;;;;;5094391;28;20062;-92
2022/05/31 04:49:55;;;;;;;3.25;2.35;;;11.00;99.90;;;;;;5078440;28;20111;-93
2022/05/31 04:52:21;;;;;;;5.20;2.50;;;11.00;99.90;;;;;;5077785;28;20059;-94
2022/05/31 04:54:52;;;;;;;5.15;2.67;;;11.00;99.90;;;;;;5078895;28;20115;-92
2022/05/31 04:57:27;;;;;;;4.28;2.72;;;11.00;99.90;;;;;;5079319;28;20028;-93
2022/05/31 04:59:53;;;;;;;4.82;2.40;;;11.10;99.90;;;;;;5077568;28;20057;-93
2022/05/31 05:02:19;;;;;;;3.78;2.55;;;11.20;99.90;;;;;;5094745;28;20104;-93
2022/05/31 05:05:02;;;;;;;5.40;2.97;;;11.20;99.90;;;;;;5080137;28;20487;-93
2022/05/31 05:07:39;;;;;;;7.50;2.75;;;11.20;99.90;;;;;;5079333;28;20086;-93
2022/05/31 05:10:06;;;;;;;5.82;2.83;;;11.20;99.90;;;;;;5077170;28;20480;-94
2022/05/31 05:12:55;;;;;;;6.32;3.42;;;11.10;99.90;;;;;;5089083;28;20040;-93
2022/05/31 05:15:48;;;;;;;3.75;2.55;;;11.00;99.90;;;;;;5081287;28;20491;-94
2022/05/31 05:18:14;;;;;;;6.00;2.80;;;10.90;99.90;;;;;;5077203;28;20081;-94
2022/05/31 05:20:43;;;;;;;5.75;2.60;;;10.90;99.90;;;;;;5078269;28;20027;-93
2022/05/31 05:23:10;;;;;;;6.85;2.85;;;11.00;99.90;;;;;;5077412;28;20035;-91
2022/05/31 05:25:37;;;;;;;7.70;3.28;;;11.20;99.90;;;;;;5094190;28;20502;-92
2022/05/31 05:30:38;;;;;;;4.55;2.97;;;11.40;99.90;;;;;;5077720;28;20065;-94
2022/05/31 05:31:24;;;;;;;5.72;2.40;;;11.50;99.90;;;;;;5094816;28;20131;-93
2022/05/31 05:34:09;;;;;;;6.25;2.60;;;11.70;99.90;;;;;;5094610;28;20043;-93
2022/05/31 05:36:55;;;;;;;9.73;2.92;;;11.80;99.90;;;;;;5079529;28;20028;-93
2022/05/31 05:39:21;;;;;;;5.45;2.92;;;11.90;99.90;;;;;;5076672;28;20028;-92
2022/05/31 05:41:53;;;;;;;5.82;2.83;;;12.00;99.90;;;;;;5094260;28;20020;-92
2022/05/31 05:44:37;;;;;;;5.13;2.85;;;12.10;99.90;;;;;;5094941;28;20379;-93
2022/05/31 05:47:14;;;;;;;8.27;2.75;;;12.30;99.90;;;;;;5080746;28;20032;-92
2022/05/31 05:49:40;;;;;;;4.65;2.72;;;12.60;99.90;;;;;;5097689;28;20062;-94
2022/05/31 05:52:26;;;;;;;4.28;2.67;;;12.80;99.90;;;;;;5098070;28;20404;-93
2022/05/31 05:55:12;;;;;;;6.03;2.63;;;12.80;99.90;;;;;;5098898;28;20081;-92
2022/05/31 05:57:56;;;;;;;3.88;2.63;;;12.80;99.90;;;;;;5097869;28;20093;-92
2022/05/31 06:00:50;;;;;;;5.13;3.10;;;12.40;99.90;;;;;;5087675;28;20028;-93
2022/05/31 06:03:26;;;;;;;3.60;3.03;;;12.10;99.90;;;;;;5080048;28;20024;-94
2022/05/31 06:06:03;;;;;;;10.05;3.17;;;12.00;99.90;;;;;;5081580;28;20066;-93
2022/05/31 06:08:33;;;;;;;3.75;2.90;;;11.90;99.90;;;;;;5079995;28;20032;-92
2022/05/31 06:11:16;;;;;;;5.07;2.88;;;11.80;99.90;;;;;;5080597;28;20085;-91
2022/05/31 06:13:44;;;;;;;4.68;3.00;;;11.70;99.90;;;;;;5080687;28;20028;-93
2022/05/31 06:16:11;;;;;;;5.80;3.00;;;11.70;99.90;;;;;;5080306;28;20083;-92
2022/05/31 06:18:56;;;;;;;4.60;3.03;;;11.80;99.90;;;;;;5080542;28;20479;-92
2022/05/31 06:21:24;;;;;;;6.70;2.88;;;11.90;99.90;;;;;;5080179;28;20123;-94
2022/05/31 06:23:55;;;;;;;8.10;3.33;;;12.00;99.90;;;;;;5080441;28;20119;-92
2022/05/31 06:26:21;;;;;;;5.85;3.17;;;12.10;99.90;;;;;;5080317;28;20148;-93
2022/05/31 06:28:59;;;;;;;4.97;2.70;;;12.30;99.90;;;;;;5097424;28;20471;-92
2022/05/31 06:31:24;;;;;;;3.85;2.85;;;12.50;99.90;;;;;;5097114;28;20111;-92
2022/05/31 06:33:51;;;;;;;7.28;3.15;;;12.50;99.90;;;;;;5096947;28;20028;-92
2022/05/31 06:36:19;;;;;;;11.80;3.35;;;12.60;99.90;;;;;;5080586;28;20020;-92
2022/05/31 06:38:45;;;;;;;11.90;3.20;;;12.70;99.90;;;;;;5080059;28;20131;-93
2022/05/31 06:41:12;;;;;;;3.63;2.53;;;12.80;99.90;;;;;;5080354;28;20031;-93
2022/05/31 06:44:00;;;;;;;5.63;3.20;;;12.90;99.90;;;;;;5088956;28;20028;-91
2022/05/31 06:46:46;;;;;;;3.95;2.90;;;13.10;99.90;;;;;;5097913;28;20039;-93
2022/05/31 06:49:32;;;;;;;9.20;3.38;;;13.20;99.90;;;;;;5097605;28;20047;-93
2022/05/31 06:57:45;;;;;;;6.28;2.83;;;13.40;99.90;;;;;;5097005;28;20029;-92
2022/05/31 07:00:27;;;;;;;4.88;2.95;;;13.40;99.90;;;;;;5095395;28;20031;-90
2022/05/31 07:02:55;;;;;;;10.50;2.83;;;13.60;99.90;;;;;;5094363;28;20035;-92
2022/05/31 07:05:22;;;;;;;3.63;3.10;;;13.70;99.90;;;;;;5078655;28;20032;-91
2022/05/31 07:07:48;;;;;;;5.10;2.60;;;13.90;99.90;;;;;;5078704;28;20368;-91
2022/05/31 07:10:45;;;;;;;4.35;2.30;;;14.30;99.90;;;;;;5094473;28;20060;-92
2022/05/31 07:13:20;;;;;;;6.10;2.80;;;15.20;99.90;;;;;;5096094;28;20105;-90
2022/05/31 07:15:51;;;;;;;3.80;3.15;;;15.60;99.90;;;;;;5094670;28;20036;-91
2022/05/31 07:18:35;;;;;;;6.65;2.72;;;15.60;99.90;;;;;;5094333;28;20117;-91
2022/05/31 07:21:01;;;;;;;6.50;3.13;;;15.90;99.90;;;;;;5076824;28;20468;-91
2022/05/31 07:23:27;;;;;;;5.85;2.78;;;15.90;99.90;;;;;;5077449;28;20115;-93
2022/05/31 07:26:04;;;;;;;4.75;2.72;;;16.60;99.90;;;;;;5095216;28;20032;-91
2022/05/31 07:28:31;;;;;;;3.97;2.45;;;17.30;99.90;;;;;;5077495;28;20028;-92
2022/05/31 07:31:00;;;;;;;4.10;2.58;;;17.90;99.90;;;;;;5094315;28;20042;-91
2022/05/31 07:33:27;;;;;;;5.40;2.25;;;18.00;99.90;;;;;;5094287;28;20055;-90
2022/05/31 07:35:55;;;;;;;7.72;2.67;;;17.80;99.90;;;;;;5078356;28;20087;-93
2022/05/31 07:38:23;;;;;;;5.57;2.55;;;17.70;99.90;;;;;;5077648;28;20027;-91
2022/05/31 07:40:49;;;;;;;5.53;2.50;;;17.90;99.90;;;;;;5077011;28;20028;-92
2022/05/31 07:43:16;;;;;;;3.67;2.40;;;18.10;99.90;;;;;;5077614;28;20031;-92
2022/05/31 07:45:43;;;;;;;3.63;2.30;;;18.40;99.90;;;;;;5077798;28;20028;-93
2022/05/31 07:48:11;;;;;;;5.78;2.83;;;18.60;99.90;;;;;;5094528;28;20474;-92
2022/05/31 07:50:38;;;;;;;2.35;1.92;;;18.30;99.90;;;;;;5078503;28;20031;-90
2022/05/31 07:53:12;;;;;;;4.00;2.65;;;17.90;99.90;;;;;;5094771;28;20024;-92
2022/05/31 07:56:09;;;;;;;3.25;2.25;;;17.60;99.90;;;;;;5094935;28;20036;-91
2022/05/31 07:58:54;;;;;;;5.95;2.00;;;18.20;99.90;;;;;;5094014;28;20062;-91
2022/05/31 08:01:42;;;;;;;3.30;2.08;;;18.90;99.90;;;;;;5094176;28;20067;-92
2022/05/31 08:04:33;;;;;;;3.25;2.30;;;19.30;99.90;;;;;;5080365;28;20063;-92
2022/05/31 08:06:59;;;;;;;4.65;2.17;;;19.90;99.90;;;;;;5077089;28;20040;-92
2022/05/31 08:09:26;;;;;;;5.50;2.50;;;19.80;99.90;;;;;;5092772;28;20038;-92
2022/05/31 08:11:52;;;;;;;3.45;1.70;;;20.10;99.90;;;;;;5076875;28;20115;-91
2022/05/31 08:14:17;;;;;;;4.38;1.95;;;20.80;99.90;;;;;;5094208;28;20055;-90
2022/05/31 08:16:43;;;;;;;3.30;2.00;;;21.50;99.20;;;;;;5078271;28;20020;-93
2022/05/31 08:19:09;;;;;;;5.68;2.58;;;21.70;95.90;;;;;;5093906;28;20391;-92
2022/05/31 08:21:35;;;;;;;2.28;1.92;;;21.50;96.60;;;;;;5076780;28;20032;-93
2022/05/31 08:24:06;;;;;;;5.30;2.42;;;21.40;97.40;;;;;;5077415;28;20127;-92
2022/05/31 08:26:32;;;;;;;3.38;2.22;;;20.60;97.90;;;;;;5076641;28;20391;-91
2022/05/31 08:28:58;;;;;;;8.70;2.60;;;19.80;97.70;;;;;;5077255;28;20055;-93
2022/05/31 08:31:28;;;;;;;5.13;2.42;;;19.00;97.80;;;;;;5077525;28;20029;-93
2022/05/31 08:33:54;;;;;;;5.55;2.40;;;18.80;98.60;;;;;;5094246;28;20028;-92
2022/05/31 08:36:20;;;;;;;5.25;2.75;;;19.40;98.20;;;;;;5077608;28;20077;-92
2022/05/31 08:38:46;;;;;;;3.67;2.45;;;19.80;97.50;;;;;;5076830;28;20115;-93
2022/05/31 08:41:24;;;;;;;6.85;1.88;;;19.30;98.00;;;;;;5076575;28;20028;-90
2022/05/31 08:43:49;;;;;;;5.53;2.28;;;19.50;96.90;;;;;;5076879;28;20036;-91
2022/05/31 08:46:33;;;;;;;2.92;2.03;;;19.80;96.30;;;;;;5093487;28;20062;-91
2022/05/31 08:49:04;;;;;;;5.38;1.73;;;20.10;96.10;;;;;;5076736;28;20066;-92
2022/05/31 08:51:52;;;;;;;5.35;2.35;;;21.30;95.40;;;;;;5092844;28;20081;-91
2022/05/31 08:57:19;;;;;;;3.55;1.92;;;23.10;92.70;;;;;;5094031;28;20024;-91
2022/05/31 08:59:51;;;;;;;5.65;2.13;;;23.30;90.30;;;;;;5093220;28;20134;-92
2022/05/31 09:02:24;;;;;;;3.42;1.98;;;22.50;90.70;;;;;;5076483;28;20035;-93
2022/05/31 09:05:07;;;;;;;4.15;1.83;;;22.20;91.50;;;;;;5076803;28;20504;-92
2022/05/31 09:07:42;;;;;;;2.65;1.75;;;22.50;90.50;;;;;;5077360;28;20036;-92
2022/05/31 09:10:24;;;;;;;4.38;1.63;;;23.20;90.50;;;;;;5076868;28;20480;-92
2022/05/31 09:12:58;;;;;;;4.40;1.65;;;22.90;90.50;;;;;;5093193;28;20768;-91
2022/05/31 09:15:32;;;;;;;4.55;1.80;;;22.40;90.30;;;;;;5076729;28;20056;-91
2022/05/31 09:18:03;;;;;;;7.93;1.90;;;21.90;90.70;;;;;;5077042;28;20651;-93
2022/05/31 09:21:08;;;;;;;3.17;1.90;;;21.30;91.00;;;;;;5077865;28;20517;-91
2022/05/31 09:23:40;;;;;;;5.65;2.25;;;21.30;92.30;;;;;;5079462;28;20038;-92
2022/05/31 09:26:09;;;;;;;2.67;1.90;;;21.20;92.70;;;;;;5080678;28;20032;-93
2022/05/31 09:28:45;;;;;;;5.43;2.10;;;21.50;92.60;;;;;;5080439;28;20391;-93
2022/05/31 09:31:37;;;;;;;2.30;1.70;;;22.70;90.60;;;;;;5079679;28;20036;-92
2022/05/31 09:34:06;;;;;;;3.00;1.67;;;23.30;88.60;;;;;;5079613;28;20042;-93
2022/05/31 09:37:08;;;;;;;4.40;1.90;;;23.50;86.10;;;;;;5080673;28;20028;-92
2022/05/31 09:39:39;;;;;;;6.18;2.53;;;23.40;85.40;;;;;;5049596;28;20040;-93
2022/05/31 09:42:09;;;;;;;;;;;23.60;86.70;;;;;;5096608;28;20059;-92
2022/05/31 09:44:42;;;;;;;4.68;2.17;;;23.20;87.60;;;;;;5079660;28;19908;-93
2022/05/31 09:47:22;;;;;;;2.78;2.03;;;22.60;86.80;;;;;;5079438;28;20039;-91
2022/05/31 09:49:50;;;;;;;4.63;2.35;;;23.40;88.40;;;;;;5096331;28;20678;-93
2022/05/31 09:52:30;;;;;;;3.80;1.83;;;23.60;86.40;;;;;;5080076;28;20038;-93
2022/05/31 09:58:26;;;;;;;3.15;2.17;;;22.80;85.00;;;;;;5097608;28;20039;-92
2022/05/31 10:01:30;;;;;;;3.90;1.92;;;23.20;86.50;;;;;;5073718;28;20036;-93
2022/05/31 10:04:28;;;;;;;5.25;2.25;;;23.40;86.40;;;;;;5092996;28;20568;-94
2022/05/31 10:07:01;;;;;;;3.78;2.17;;;23.70;84.50;;;;;;5079960;28;20032;-92
2022/05/31 10:09:48;;;;;;;4.22;2.42;;;23.50;81.20;;;;;;5079090;28;20479;-91
2022/05/31 10:12:31;;;;;;;3.80;2.00;;;22.70;81.70;;;;;;5079232;28;20070;-91
2022/05/31 10:14:57;;;;;;;2.50;2.10;;;22.80;86.50;;;;;;5079347;28;20035;-91
2022/05/31 10:17:34;;;;;;;7.20;2.08;;;22.90;86.30;;;;;;5080020;28;20123;-91
2022/05/31 10:20:19;;;;;;;2.55;1.95;;;22.90;83.00;;;;;;5095755;28;20708;-90
2022/05/31 10:23:02;;;;;;;3.88;2.08;;;22.70;83.40;;;;;;5079385;28;20027;-90
2022/05/31 10:25:51;;;;;;;3.85;1.95;;;22.30;82.50;;;;;;5096031;28;20047;-90
2022/05/31 10:28:53;;;;;;;3.55;1.98;;;22.30;86.10;;;;;;5096400;28;20054;-90
2022/05/31 10:31:47;;;;;;;2.88;1.95;;;22.10;82.70;;;;;;5092520;28;20475;-90
2022/05/31 10:34:36;;;;;;;5.28;2.35;;;21.80;83.10;;;;;;5078683;28;20024;-90
2022/05/31 10:37:04;;;;;;;3.03;1.80;;;21.80;83.40;;;;;;5095384;28;20099;-90
2022/05/31 10:39:36;;;;;;;3.05;2.10;;;21.60;85.10;;;;;;5078530;28;20024;-91
2022/05/31 10:42:07;;;;;;;3.88;2.00;;;21.10;79.90;;;;;;5079012;28;20036;-91
2022/05/31 10:44:44;;;;;;;4.45;2.20;;;21.10;81.10;;;;;;5095843;28;20040;-89
2022/05/31 10:47:16;;;;;;;2.63;2.00;;;20.60;83.00;;;;;;5095210;28;20495;-89
2022/05/31 10:49:45;;;;;;;6.72;2.28;;;20.20;84.80;;;;;;5078404;28;20040;-91
2022/05/31 10:52:53;;;;;;;5.35;2.17;;;20.10;87.30;;;;;;5079142;28;20031;-89
2022/05/31 10:55:51;;;;;;;5.78;3.25;;;20.00;87.20;;;;;;5077909;28;20047;-90
2022/05/31 10:58:52;;;;;;;2.63;1.92;;;19.70;89.30;;;;;;5095407;28;20377;-88
2022/05/31 11:01:39;;;;;;;4.43;1.83;;;20.00;85.00;;;;;;5094845;28;20062;-91
2022/05/31 11:04:42;;;;;;;5.53;1.70;;;20.70;87.50;;;;;;5078901;28;20712;-91
2022/05/31 11:07:15;;;;;;;2.63;1.73;;;21.40;83.50;;;;;;5063779;28;20063;-89
2022/05/31 11:12:56;;;;;;;5.13;1.85;;;21.40;83.70;;;;;;5064266;28;20085;-92
2022/05/31 11:15:42;;;;;;;7.28;2.45;;;22.10;79.40;;;;;;5078475;28;20119;-91
2022/05/31 11:18:08;;;;;;;9.68;1.67;;;21.80;77.70;;;;;;5078391;28;20035;-90
2022/05/31 11:21:05;;;;;;;7.30;1.83;;;21.40;76.10;;;;;;5078134;28;20024;-90
2022/05/31 11:23:49;;;;;;;12.45;2.20;;;21.50;75.30;;;;;;5077647;28;20039;-91
2022/05/31 11:26:35;;;;;;;5.25;1.77;;;21.30;73.50;;;;;;5078092;28;20035;-91
2022/05/31 11:29:19;;;;;;;4.45;1.90;;;21.00;75.60;;;;;;5095059;28;20043;-90
2022/05/31 11:31:50;;;;;;;4.72;1.80;;;21.00;75.10;;;;;;5094805;28;20028;-92
2022/05/31 11:34:41;;;;;;;5.72;2.92;;;20.90;75.70;;;;;;5078445;28;20425;-92
2022/05/31 11:37:33;;;;;;;4.97;2.00;;;20.30;78.40;;;;;;5095374;28;20081;-91
2022/05/31 11:40:07;;;;;;;4.95;1.90;;;20.30;80.00;;;;;;5094584;28;20040;-92
2022/05/31 11:43:00;;;;;;;7.55;2.30;;;20.20;79.80;;;;;;5077432;28;20036;-91
2022/05/31 11:46:04;;;;;;;3.92;2.15;;;19.90;81.80;;;;;;5094467;28;20028;-92
2022/05/31 11:48:51;;;;;;;5.20;1.67;;;19.90;80.60;;;;;;5094667;28;20081;-91
2022/05/31 11:51:39;;;;;;;3.65;1.98;;;19.90;80.10;;;;;;5094549;28;20024;-91
2022/05/31 11:54:27;;;;;;;4.80;2.13;;;19.90;82.90;;;;;;5094883;28;20035;-91
2022/05/31 11:57:34;;;;;;;4.72;2.42;;;19.80;81.30;;;;;;5077540;28;20028;-89
2022/05/31 12:00:09;;;;;;;4.10;2.10;;;20.00;82.80;;;;;;5077708;28;20078;-91
2022/05/31 12:03:39;;;;;;;10.98;2.00;;;19.90;80.10;;;;;;5078069;28;20036;-91
2022/05/31 12:06:14;;;;;;;3.92;2.17;;;19.90;80.80;;;;;;5006926;28;20077;-90
2022/05/31 12:08:54;;;;;;;7.03;2.53;;;19.90;80.00;;;;;;5077393;28;20481;-92
2022/05/31 12:11:32;;;;;;;10.00;2.13;;;20.40;77.90;;;;;;5077602;28;20127;-92
2022/05/31 12:14:00;;;;;;;7.10;1.73;;;20.70;74.80;;;;;;5077534;28;20899;-91
2022/05/31 12:16:27;;;;;;;3.40;1.75;;;21.00;77.40;;;;;;5093665;28;20024;-92
2022/05/31 12:19:10;;;;;;;5.90;1.85;;;21.40;73.00;;;;;;5076866;28;20020;-92
2022/05/31 12:21:43;;;;;;;9.68;2.15;;;21.40;72.20;;;;;;5095618;28;20471;-91
2022/05/31 12:24:16;;;;;;;2.92;1.92;;;21.30;73.60;;;;;;5077419;28;20386;-92
2022/05/31 12:26:45;;;;;;;5.72;1.55;;;21.00;69.50;;;;;;5094127;28;20826;-92
2022/05/31 12:29:18;;;;;;;8.48;2.88;;;21.00;70.90;;;;;;5093697;28;20024;-91
2022/05/31 12:31:43;;;;;;;13.18;2.00;;;21.40;73.80;;;;;;5093234;28;20067;-91
2022/05/31 12:34:20;;;;;;;5.80;1.75;;;22.00;69.90;;;;;;5076691;28;20016;-93
2022/05/31 12:36:59;;;;;;;6.65;2.10;;;22.30;65.70;;;;;;5093058;28;20128;-92
2022/05/31 12:39:30;;;;;;;7.07;2.05;;;22.60;65.10;;;;;;5093493;28;20036;-91
2022/05/31 12:41:58;;;;;;;3.17;1.80;;;22.50;62.90;;;;;;5093317;28;20036;-91
2022/05/31 12:44:33;;;;;;;2.55;1.85;;;22.40;62.80;;;;;;5093845;28;20082;-92
2022/05/31 12:47:28;;;;;;;6.95;1.67;;;22.60;61.00;;;;;;5076926;28;20032;-91
2022/05/31 12:50:02;;;;;;;21.05;2.05;;;22.80;58.70;;;;;;5086277;28;20040;-90
2022/05/31 12:55:24;;;;;;;3.03;1.60;;;22.70;59.90;;;;;;5094038;28;20028;-92
2022/05/31 12:58:29;;;;;;;2.72;1.75;;;22.60;60.90;;;;;;5080664;28;20036;-92
2022/05/31 13:01:03;;;;;;;5.03;1.98;;;22.80;63.30;;;;;;5080153;28;20032;-92
2022/05/31 13:03:32;;;;;;;5.22;1.80;;;22.80;63.20;;;;;;5097309;28;20368;-91
2022/05/31 13:06:02;;;;;;;2.92;1.50;;;22.80;61.70;;;;;;5080382;28;20028;-91
2022/05/31 13:08:56;;;;;;;4.47;1.80;;;22.60;64.30;;;;;;5080917;28;20440;-90
2022/05/31 13:20:19;;;;;;;2.22;1.35;;;21.40;63.80;;;;;;5097908;28;20124;-91
2022/05/31 13:22:52;;;;;;;8.07;1.85;;;21.60;62.30;;;;;;5080566;28;20044;-92
2022/05/31 13:25:25;;;;;;;9.55;1.73;;;21.70;61.70;;;;;;5097196;28;20111;-91
2022/05/31 13:27:56;;;;;;;3.33;1.38;;;22.00;63.30;;;;;;5080248;28;20039;-91
2022/05/31 13:30:24;;;;;;;1.77;1.27;;;22.40;61.40;;;;;;5080733;28;20024;-91
2022/05/31 13:32:50;;;;;;;2.40;1.70;;;22.70;61.20;;;;;;5097170;28;20028;-92
2022/05/31 13:35:24;;;;;;;4.90;2.00;;;23.00;60.30;;;;;;5080562;28;20039;-92
2022/05/31 13:37:49;;;;;;;6.78;1.60;;;23.10;58.70;;;;;;5096916;28;20028;-91
2022/05/31 13:40:25;;;;;;;8.70;2.10;;;23.20;57.10;;;;;;5096687;28;20036;-91
2022/05/31 13:42:54;;;;;;;2.83;1.42;;;22.60;58.30;;;;;;5079552;28;20032;-90
2022/05/31 13:45:23;;;;;;;3.65;1.60;;;22.40;60.20;;;;;;5079569;28;20510;-93
2022/05/31 13:48:01;;;;;;;3.42;1.73;;;22.50;58.80;;;;;;5079524;28;20036;-91
2022/05/31 13:50:37;;;;;;;2.47;1.35;;;22.70;59.80;;;;;;5096321;28;20067;-91
2022/05/31 13:53:10;;;;;;;4.90;1.60;;;22.80;57.40;;;;;;5096067;28;20126;-92
2022/05/31 13:55:36;;;;;;;14.18;1.95;;;22.40;59.50;;;;;;5096029;28;20024;-91
2022/05/31 13:58:02;;;;;;;5.78;1.52;;;22.20;60.10;;;;;;5079175;28;20043;-91
2022/05/31 14:00:52;;;;;;;7.65;2.00;;;22.10;59.70;;;;;;5079627;28;20040;-91
2022/05/31 14:03:24;;;;;;;4.20;1.90;;;21.50;59.40;;;;;;5095846;28;20849;-91